createdAt,value
2018-09-28T00:00:26.089Z,4.35
2018-09-28T00:02:54.866Z,4.08
2018-09-28T00:05:23.635Z,5.90
2018-09-28T00:07:52.288Z,4.20
2018-09-28T00:10:20.946Z,4.20
2018-09-28T00:12:50.684Z,4.37
2018-09-28T00:15:20.187Z,4.20
2018-09-28T00:17:48.906Z,4.33
2018-09-28T00:20:17.858Z,4.10
2018-09-28T00:22:46.560Z,4.20
2018-09-28T00:25:16.876Z,4.53
2018-09-28T00:27:45.644Z,4.58
2018-09-28T00:30:14.473Z,5.00
2018-09-28T00:32:43.244Z,4.30
2018-09-28T00:35:11.990Z,3.98
2018-09-28T00:37:40.777Z,4.08
2018-09-28T00:40:09.636Z,4.30
2018-09-28T00:42:39.442Z,4.28
2018-09-28T00:45:08.204Z,4.70
2018-09-28T00:47:36.984Z,4.20
2018-09-28T00:50:05.792Z,4.40
2018-09-28T00:52:34.632Z,4.20
2018-09-28T00:55:03.725Z,3.77
2018-09-28T00:57:32.508Z,3.85
2018-09-28T01:00:01.176Z,4.37
2018-09-28T01:02:29.899Z,4.20
2018-09-28T01:04:58.693Z,4.37
2018-09-28T01:07:27.378Z,4.35
2018-09-28T01:09:56.036Z,4.50
2018-09-28T01:12:24.772Z,4.35
2018-09-28T01:14:53.473Z,4.10
2018-09-28T01:17:22.083Z,4.40
2018-09-28T01:19:50.899Z,4.07
2018-09-28T01:22:19.576Z,4.43
2018-09-28T01:24:48.184Z,4.50
2018-09-28T01:27:16.934Z,4.33
2018-09-28T01:29:45.710Z,4.37
2018-09-28T01:32:14.568Z,4.50
2018-09-28T01:34:43.357Z,4.62
2018-09-28T01:37:12.051Z,4.47
2018-09-28T01:39:40.809Z,4.72
2018-09-28T01:42:09.592Z,4.67
2018-09-28T01:44:38.220Z,4.70
2018-09-28T01:47:06.892Z,5.03
2018-09-28T01:49:35.590Z,4.75
2018-09-28T01:52:04.636Z,4.60
2018-09-28T01:54:34.579Z,4.35
2018-09-28T01:57:03.308Z,4.90
2018-09-28T01:59:31.984Z,4.78
2018-09-28T02:02:00.765Z,4.60
2018-09-28T02:04:29.545Z,4.08
2018-09-28T02:06:58.343Z,4.40
2018-09-28T02:09:27.026Z,4.37
2018-09-28T02:11:55.794Z,4.50
2018-09-28T02:14:24.478Z,4.78
2018-09-28T02:16:53.136Z,4.20
2018-09-28T02:19:21.827Z,4.10
2018-09-28T02:21:50.541Z,4.37
2018-09-28T02:24:19.511Z,4.35
2018-09-28T02:26:48.119Z,4.67
2018-09-28T02:29:17.175Z,4.35
2018-09-28T02:31:45.918Z,4.53
2018-09-28T02:34:14.732Z,4.08
2018-09-28T02:36:43.506Z,4.60
2018-09-28T02:39:12.250Z,4.60
2018-09-28T02:41:41.004Z,4.53
2018-09-28T02:44:09.736Z,4.58
2018-09-28T02:46:38.371Z,4.40
2018-09-28T02:49:07.122Z,4.53
2018-09-28T02:51:35.944Z,4.80
2018-09-28T02:54:04.646Z,4.92
2018-09-28T02:56:33.259Z,4.70
2018-09-28T02:59:02.205Z,5.08
2018-09-28T03:01:30.864Z,4.50
2018-09-28T03:03:59.482Z,4.72
2018-09-28T03:06:28.312Z,4.72
2018-09-28T03:08:56.938Z,4.65
2018-09-28T03:11:25.643Z,4.75
2018-09-28T03:13:54.382Z,5.37
2018-09-28T03:16:23.081Z,4.87
2018-09-28T03:18:51.678Z,5.17
2018-09-28T03:21:20.364Z,4.70
2018-09-28T03:23:50.316Z,4.95
2018-09-28T03:26:18.890Z,5.12
2018-09-28T03:28:49.591Z,4.85
2018-09-28T03:31:18.201Z,5.12
2018-09-28T03:33:48.242Z,5.35
2018-09-28T03:36:17.620Z,5.55
2018-09-28T03:38:49.247Z,5.45
2018-09-28T03:41:17.886Z,5.22
2018-09-28T03:43:46.597Z,5.30
2018-09-28T03:46:15.200Z,4.70
2018-09-28T03:48:43.992Z,5.17
2018-09-28T03:51:13.043Z,4.93
2018-09-28T03:53:44.320Z,5.20
2018-09-28T03:56:13.069Z,5.08
2018-09-28T03:58:41.796Z,5.08
2018-09-28T04:01:10.633Z,5.33
2018-09-28T04:03:39.403Z,5.35
2018-09-28T04:06:08.061Z,4.80
2018-09-28T04:08:36.884Z,5.30
2018-09-28T04:11:05.690Z,5.17
2018-09-28T04:13:38.251Z,5.20
2018-09-28T04:16:06.835Z,5.37
2018-09-28T04:18:35.634Z,5.05
2018-09-28T04:21:04.574Z,5.10
2018-09-28T04:23:33.222Z,5.22
2018-09-28T04:26:02.098Z,5.78
2018-09-28T04:28:30.807Z,5.30
2018-09-28T04:30:59.527Z,5.60
2018-09-28T04:33:28.192Z,5.62
2018-09-28T04:35:58.490Z,5.53
2018-09-28T04:38:27.274Z,5.33
2018-09-28T04:40:56.052Z,5.50
2018-09-28T04:43:24.983Z,5.80
2018-09-28T04:45:53.766Z,6.65
2018-09-28T04:48:22.873Z,5.92
2018-09-28T04:50:51.570Z,6.00
2018-09-28T04:53:21.607Z,5.70
2018-09-28T04:55:50.254Z,5.40
2018-09-28T04:58:20.177Z,5.80
2018-09-28T05:00:48.776Z,5.65
2018-09-28T05:03:17.640Z,5.70
2018-09-28T05:05:46.336Z,5.97
2018-09-28T05:08:16.225Z,6.03
2018-09-28T05:10:45.044Z,5.90
2018-09-28T05:13:14.357Z,5.93
2018-09-28T05:15:43.274Z,5.83
2018-09-28T05:18:11.877Z,6.35
2018-09-28T05:20:40.626Z,6.00
2018-09-28T05:23:09.420Z,6.70
2018-09-28T05:25:38.172Z,5.90
2018-09-28T05:28:06.950Z,6.55
2018-09-28T05:30:35.654Z,5.97
2018-09-28T05:33:06.424Z,6.47
2018-09-28T05:35:35.128Z,6.85
2018-09-28T05:38:03.843Z,7.00
2018-09-28T05:40:32.624Z,7.03
2018-09-28T05:43:02.287Z,6.80
2018-09-28T05:45:30.895Z,6.87
2018-09-28T05:47:59.509Z,6.50
2018-09-28T05:50:28.368Z,6.25
2018-09-28T05:52:57.037Z,6.30
2018-09-28T05:55:26.337Z,6.45
2018-09-28T06:00:02.807Z,6.00
2018-09-28T06:02:36.776Z,6.92
2018-09-28T06:05:10.642Z,9.63
2018-09-28T06:07:39.467Z,7.42
2018-09-28T06:10:08.128Z,7.45
2018-09-28T06:12:38.468Z,8.88
2018-09-28T06:15:07.150Z,8.90
2018-09-28T06:17:35.880Z,9.30
2018-09-28T06:20:04.927Z,8.70
2018-09-28T06:22:33.679Z,8.80
2018-09-28T06:25:05.685Z,9.30
2018-09-28T06:27:34.341Z,8.95
2018-09-28T06:30:02.963Z,9.33
2018-09-28T06:32:32.451Z,8.80
2018-09-28T06:35:01.114Z,9.70
2018-09-28T06:37:30.043Z,14.05
2018-09-28T06:40:02.487Z,15.30
2018-09-28T06:42:38.050Z,13.60
2018-09-28T06:45:07.059Z,19.17
2018-09-28T06:47:35.787Z,23.60
2018-09-28T06:50:04.599Z,23.50
2018-09-28T06:52:33.515Z,21.10
2018-09-28T06:55:02.775Z,22.00
2018-09-28T06:57:31.504Z,23.07
2018-09-28T07:00:00.401Z,33.42
2018-09-28T07:02:28.950Z,34.30
2018-09-28T07:04:57.641Z,38.80
2018-09-28T07:07:26.308Z,42.50
2018-09-28T07:09:56.201Z,47.45
2018-09-28T07:12:25.083Z,57.25
2018-09-28T07:15:00.346Z,78.60
2018-09-28T07:17:29.379Z,74.30
2018-09-28T07:20:02.148Z,69.55
2018-09-28T07:22:30.921Z,78.85
2018-09-28T07:24:59.764Z,64.07
2018-09-28T07:27:28.383Z,48.28
2018-09-28T07:29:57.601Z,44.42
2018-09-28T07:32:26.322Z,54.38
2018-09-28T07:34:55.027Z,51.20
2018-09-28T07:37:26.224Z,49.80
2018-09-28T07:39:55.081Z,44.75
2018-09-28T07:42:24.276Z,44.20
2018-09-28T07:45:02.061Z,41.35
2018-09-28T07:47:32.001Z,35.52
2018-09-28T07:50:00.731Z,34.38
2018-09-28T07:52:30.934Z,33.20
2018-09-28T07:55:01.155Z,31.70
2018-09-28T07:57:30.015Z,34.25
2018-09-28T07:59:58.859Z,31.87
2018-09-28T08:02:27.675Z,29.33
2018-09-28T08:05:06.089Z,23.83
2018-09-28T08:07:37.059Z,24.15
2018-09-28T08:10:06.039Z,23.67
2018-09-28T08:12:34.813Z,22.00
2018-09-28T08:15:03.844Z,21.52
2018-09-28T08:17:32.767Z,20.12
2018-09-28T08:20:02.844Z,17.10
2018-09-28T08:22:31.576Z,15.88
2018-09-28T08:25:00.277Z,16.02
2018-09-28T08:27:29.102Z,15.23
2018-09-28T08:29:57.835Z,12.03
2018-09-28T08:32:26.543Z,10.00
2018-09-28T08:34:55.639Z,10.23
2018-09-28T08:37:24.521Z,10.93
2018-09-28T08:39:53.228Z,10.37
2018-09-28T08:42:21.893Z,10.23
2018-09-28T08:44:50.670Z,10.28
2018-09-28T08:47:19.470Z,9.53
2018-09-28T08:49:48.130Z,10.50
2018-09-28T08:52:16.838Z,10.00
2018-09-28T08:54:45.526Z,8.60
2018-09-28T08:57:14.288Z,8.20
2018-09-28T08:59:43.034Z,8.33
2018-09-28T09:02:11.853Z,8.15
2018-09-28T09:04:40.815Z,6.45
2018-09-28T09:07:09.601Z,6.30
2018-09-28T09:09:38.391Z,7.10
2018-09-28T09:12:07.188Z,8.40
2018-09-28T09:14:35.976Z,7.25
2018-09-28T09:17:04.874Z,6.00
2018-09-28T09:19:33.663Z,5.70
2018-09-28T09:22:02.449Z,5.20
2018-09-28T09:24:31.214Z,5.50
2018-09-28T09:27:00.001Z,5.20
2018-09-28T09:29:28.752Z,5.28
2018-09-28T09:31:59.925Z,5.25
2018-09-28T09:34:28.662Z,5.58
2018-09-28T09:37:05.767Z,5.55
2018-09-28T09:39:35.677Z,5.70
2018-09-28T09:42:04.409Z,5.72
2018-09-28T09:44:33.215Z,5.70
2018-09-28T09:47:02.009Z,5.83
2018-09-28T09:49:30.956Z,6.20
2018-09-28T09:52:00.008Z,6.85
2018-09-28T09:54:28.730Z,6.70
2018-09-28T09:56:57.535Z,6.97
2018-09-28T09:59:27.171Z,7.53
2018-09-28T10:02:09.521Z,6.20
2018-09-28T10:04:39.431Z,7.42
2018-09-28T10:07:10.545Z,7.20
2018-09-28T10:09:39.575Z,6.87
2018-09-28T10:12:10.112Z,7.20
2018-09-28T10:14:38.933Z,8.05
2018-09-28T10:17:07.665Z,8.63
2018-09-28T10:19:36.335Z,8.77
2018-09-28T10:22:05.050Z,7.80
2018-09-28T10:24:35.184Z,8.25
2018-09-28T10:27:19.764Z,8.17
2018-09-28T10:29:55.555Z,8.15
2018-09-28T10:32:24.309Z,8.23
2018-09-28T10:34:53.144Z,9.98
2018-09-28T10:37:22.210Z,9.05
2018-09-28T10:39:51.694Z,8.40
2018-09-28T10:42:20.271Z,8.20
2018-09-28T10:44:48.959Z,8.03
2018-09-28T10:47:18.489Z,7.45
2018-09-28T10:49:47.127Z,8.00
2018-09-28T10:52:16.146Z,7.80
2018-09-28T10:54:44.712Z,8.10
2018-09-28T10:58:44.547Z,8.40
2018-09-28T11:01:13.240Z,8.80
2018-09-28T11:03:42.011Z,8.90
2018-09-28T11:06:10.915Z,8.18
2018-09-28T11:08:40.291Z,8.40
2018-09-28T11:11:09.298Z,8.35
2018-09-28T11:13:37.938Z,8.53
2018-09-28T11:16:13.143Z,8.68
2018-09-28T11:18:41.907Z,8.00
2018-09-28T11:21:13.668Z,7.92
2018-09-28T11:23:43.892Z,8.37
2018-09-28T11:26:12.767Z,8.93
2018-09-28T11:28:42.462Z,8.35
2018-09-28T11:31:11.016Z,8.60
2018-09-28T11:33:39.697Z,7.70
2018-09-28T11:36:09.109Z,8.45
2018-09-28T11:38:37.895Z,8.35
2018-09-28T11:41:06.598Z,8.27
2018-09-28T11:43:35.285Z,8.15
2018-09-28T11:46:04.005Z,7.97
2018-09-28T11:48:33.062Z,7.20
2018-09-28T11:51:01.906Z,8.00
2018-09-28T11:53:31.377Z,7.30
2018-09-28T11:56:00.067Z,7.50
2018-09-28T11:58:29.621Z,7.80
2018-09-28T12:00:58.524Z,7.47
2018-09-28T12:03:27.640Z,7.70
2018-09-28T12:05:56.314Z,6.90
2018-09-28T12:08:25.390Z,9.67
2018-09-28T12:10:55.719Z,8.10
2018-09-28T12:13:24.350Z,6.85
2018-09-28T12:15:53.065Z,6.65
2018-09-28T12:18:22.040Z,6.90
2018-09-28T12:20:51.561Z,7.20
2018-09-28T12:23:20.163Z,7.42
2018-09-28T12:25:49.142Z,8.43
2018-09-28T12:28:17.839Z,7.50
2018-09-28T12:30:46.620Z,7.22
2018-09-28T12:33:15.423Z,7.00
2018-09-28T12:35:44.079Z,6.17
2018-09-28T12:38:12.988Z,5.58
2018-09-28T12:40:42.440Z,6.00
2018-09-28T12:43:11.067Z,5.80
2018-09-28T12:45:39.935Z,6.33
2018-09-28T12:48:09.774Z,5.55
2018-09-28T12:50:39.074Z,6.40
2018-09-28T12:53:07.753Z,6.00
2018-09-28T12:55:36.531Z,5.42
2018-09-28T12:58:05.307Z,5.92
2018-09-28T13:00:34.017Z,5.25
2018-09-28T13:03:02.750Z,5.80
2018-09-28T13:05:31.476Z,5.07
2018-09-28T13:08:06.155Z,5.33
2018-09-28T13:10:35.630Z,5.30
2018-09-28T13:13:04.389Z,5.60
2018-09-28T13:15:33.225Z,5.30
2018-09-28T13:18:02.071Z,5.45
2018-09-28T13:20:30.793Z,5.42
2018-09-28T13:22:59.450Z,4.90
2018-09-28T13:25:28.040Z,5.23
2018-09-28T13:27:56.890Z,5.40
2018-09-28T13:30:26.967Z,5.70
2018-09-28T13:32:55.664Z,5.33
2018-09-28T13:35:24.359Z,5.15
2018-09-28T13:37:53.278Z,5.27
2018-09-28T13:40:22.225Z,4.75
2018-09-28T13:42:51.827Z,4.90
2018-09-28T13:45:20.487Z,5.00
2018-09-28T13:47:49.214Z,6.37
2018-09-28T13:50:17.935Z,4.85
2018-09-28T13:52:46.826Z,4.40
2018-09-28T13:55:21.400Z,4.67
2018-09-28T13:57:50.154Z,4.20
2018-09-28T14:00:18.886Z,4.35
2018-09-28T14:02:48.440Z,4.03
2018-09-28T14:05:17.120Z,4.13
2018-09-28T14:07:45.880Z,3.72
2018-09-28T14:10:14.587Z,3.83
2018-09-28T14:12:43.418Z,3.02
2018-09-28T14:15:12.074Z,3.53
2018-09-28T14:17:40.875Z,3.58
2018-09-28T14:20:09.786Z,4.20
2018-09-28T14:22:38.606Z,3.20
2018-09-28T14:25:12.505Z,3.27
2018-09-28T14:27:55.641Z,3.20
2018-09-28T14:30:24.476Z,2.98
2018-09-28T14:32:53.375Z,3.10
2018-09-28T14:35:22.263Z,3.03
2018-09-28T14:37:51.139Z,3.00
2018-09-28T14:40:19.900Z,3.08
2018-09-28T14:42:48.759Z,2.92
2018-09-28T14:45:17.615Z,2.85
2018-09-28T14:47:46.371Z,2.80
2018-09-28T14:50:17.501Z,2.90
2018-09-28T14:52:46.377Z,3.05
2018-09-28T14:55:14.987Z,3.37
2018-09-28T14:57:44.062Z,3.00
2018-09-28T15:00:12.990Z,2.90
2018-09-28T15:02:42.164Z,3.00
2018-09-28T15:05:10.832Z,3.37
2018-09-28T15:07:39.705Z,3.42
2018-09-28T15:10:08.522Z,3.40
2018-09-28T15:12:37.313Z,3.08
2018-09-28T15:15:06.229Z,2.60
2018-09-28T15:17:35.059Z,3.00
2018-09-28T15:20:04.089Z,3.02
2018-09-28T15:22:32.965Z,2.90
2018-09-28T15:25:06.357Z,3.25
2018-09-28T15:27:40.305Z,3.27
2018-09-28T15:30:20.680Z,4.22
2018-09-28T15:33:00.558Z,3.35
2018-09-28T15:35:29.875Z,3.00
2018-09-28T15:37:59.944Z,10.20
2018-09-28T15:40:28.695Z,3.40
2018-09-28T15:42:58.242Z,3.30
2018-09-28T15:45:27.064Z,3.12
2018-09-28T15:47:55.753Z,3.47
2018-09-28T15:50:24.402Z,3.12
2018-09-28T15:52:53.990Z,3.30
2018-09-28T15:55:25.003Z,3.22
2018-09-28T15:57:53.682Z,8.93
2018-09-28T16:00:22.444Z,3.60
2018-09-28T16:02:51.075Z,4.67
2018-09-28T16:05:20.011Z,4.15
2018-09-28T16:07:48.729Z,4.25
2018-09-28T16:10:17.484Z,3.50
2018-09-28T16:12:46.278Z,3.75
2018-09-28T16:15:15.140Z,4.00
2018-09-28T16:17:44.076Z,3.98
2018-09-28T16:20:12.909Z,3.67
2018-09-28T16:22:41.596Z,3.70
2018-09-28T16:25:10.366Z,3.75
2018-09-28T16:27:39.201Z,3.77
2018-09-28T16:30:07.919Z,3.70
2018-09-28T16:32:36.618Z,3.80
2018-09-28T16:35:05.651Z,4.00
2018-09-28T16:37:34.335Z,3.98
2018-09-28T16:40:04.158Z,4.40
2018-09-28T16:42:32.933Z,4.33
2018-09-28T16:45:01.583Z,4.93
2018-09-28T16:47:31.109Z,4.85
2018-09-28T16:49:59.790Z,4.92
2018-09-28T16:52:28.411Z,4.90
2018-09-28T16:54:57.239Z,5.35
2018-09-28T16:57:26.093Z,5.08
2018-09-28T16:59:54.843Z,4.78
2018-09-28T17:02:23.562Z,4.58
2018-09-28T17:04:52.182Z,4.50
2018-09-28T17:07:20.838Z,4.60
2018-09-28T17:09:49.518Z,4.17
2018-09-28T17:12:18.186Z,4.65
2018-09-28T17:14:46.908Z,4.20
2018-09-28T17:17:15.672Z,4.22
2018-09-28T17:19:44.638Z,4.20
2018-09-28T17:22:13.359Z,4.33
2018-09-28T17:24:47.245Z,4.22
2018-09-28T17:27:23.479Z,4.62
2018-09-28T17:29:57.870Z,4.80
2018-09-28T17:32:26.702Z,7.40
2018-09-28T17:34:57.486Z,7.20
2018-09-28T17:37:26.185Z,4.65
2018-09-28T17:39:55.380Z,4.92
2018-09-28T17:42:24.149Z,6.17
2018-09-28T17:44:53.070Z,4.53
2018-09-28T17:47:21.888Z,5.08
2018-09-28T17:49:50.729Z,5.17
2018-09-28T17:52:19.441Z,8.25
2018-09-28T17:54:48.113Z,5.20
2018-09-28T17:57:16.789Z,6.87
2018-09-28T17:59:45.545Z,6.13
2018-09-28T18:02:14.371Z,6.50
2018-09-28T18:04:44.742Z,6.70
2018-09-28T18:07:13.439Z,7.42
2018-09-28T18:09:42.158Z,7.60
2018-09-28T18:12:10.979Z,7.55
2018-09-28T18:14:39.982Z,9.43
2018-09-28T18:17:10.486Z,5.00
2018-09-28T18:19:39.392Z,6.60
2018-09-28T18:22:08.081Z,7.67
2018-09-28T18:24:36.785Z,6.80
2018-09-28T18:27:06.370Z,8.18
2018-09-28T18:29:35.221Z,5.80
2018-09-28T18:32:03.903Z,6.75
2018-09-28T18:34:32.657Z,6.10
2018-09-28T18:37:01.489Z,6.80
2018-09-28T18:39:30.965Z,7.50
2018-09-28T18:41:59.629Z,8.50
2018-09-28T18:44:28.376Z,8.60
2018-09-28T18:46:57.223Z,6.55
2018-09-28T18:49:26.203Z,7.60
2018-09-28T18:51:54.888Z,14.43
2018-09-28T18:54:24.118Z,9.18
2018-09-28T18:56:52.852Z,7.00
2018-09-28T18:59:21.707Z,8.15
2018-09-28T19:01:50.579Z,7.28
2018-09-28T19:04:19.836Z,6.53
2018-09-28T19:06:48.461Z,7.55
2018-09-28T19:09:17.136Z,6.53
2018-09-28T19:11:45.915Z,6.53
2018-09-28T19:14:15.182Z,5.78
2018-09-28T19:16:43.934Z,6.60
2018-09-28T19:19:12.582Z,7.30
2018-09-28T19:21:41.371Z,7.60
2018-09-28T19:24:10.160Z,8.30
2018-09-28T19:26:38.795Z,7.10
2018-09-28T19:29:07.495Z,6.75
2018-09-28T19:31:36.240Z,7.75
2018-09-28T19:34:04.934Z,8.10
2018-09-28T19:36:33.909Z,7.67
2018-09-28T19:39:04.662Z,8.38
2018-09-28T19:41:33.520Z,9.28
2018-09-28T19:44:02.247Z,9.33
2018-09-28T19:46:30.991Z,9.13
2018-09-28T19:48:59.673Z,9.10
2018-09-28T19:51:28.345Z,9.10
2018-09-28T19:53:57.242Z,10.65
2018-09-28T19:56:25.976Z,10.32
2018-09-28T19:58:57.078Z,11.00
2018-09-28T20:01:25.784Z,8.90
2018-09-28T20:03:54.576Z,9.68
2018-09-28T20:06:23.400Z,9.00
2018-09-28T20:08:52.187Z,8.95
2018-09-28T20:11:21.061Z,9.30
2018-09-28T20:13:59.934Z,7.25
2018-09-28T20:16:28.574Z,8.40
2018-09-28T20:18:58.631Z,6.92
2018-09-28T20:21:27.379Z,6.90
2018-09-28T20:23:56.146Z,6.70
2018-09-28T20:26:27.676Z,6.67
2018-09-28T20:28:56.357Z,6.10
2018-09-28T20:31:26.352Z,6.60
2018-09-28T20:33:55.059Z,5.17
2018-09-28T20:36:23.901Z,4.78
2018-09-28T20:38:52.813Z,4.50
2018-09-28T20:41:21.668Z,4.25
2018-09-28T20:43:50.595Z,4.60
2018-09-28T20:46:19.535Z,4.03
2018-09-28T20:48:48.553Z,3.60
2018-09-28T20:51:17.285Z,4.65
2018-09-28T20:53:47.436Z,3.80
2018-09-28T20:56:16.147Z,3.22
2018-09-28T20:58:44.809Z,3.63
2018-09-28T21:01:13.696Z,3.80
2018-09-28T21:03:42.497Z,3.58
2018-09-28T21:06:11.143Z,3.45
2018-09-28T21:08:39.951Z,2.90
2018-09-28T21:11:08.619Z,3.20
2018-09-28T21:13:37.373Z,2.90
2018-09-28T21:16:06.108Z,2.62
2018-09-28T21:18:34.929Z,3.03
2018-09-28T21:21:03.708Z,2.92
2018-09-28T21:23:32.462Z,2.92
2018-09-28T21:26:01.162Z,2.70
2018-09-28T21:28:29.870Z,3.27
2018-09-28T21:30:58.507Z,2.33
2018-09-28T21:33:27.222Z,2.17
2018-09-28T21:35:57.540Z,1.80
2018-09-28T21:38:26.338Z,1.50
2018-09-28T21:40:56.924Z,1.92
2018-09-28T21:43:25.665Z,2.25
2018-09-28T21:45:56.113Z,1.90
2018-09-28T21:48:24.855Z,1.80
2018-09-28T21:50:53.965Z,1.55
2018-09-28T21:53:22.695Z,1.60
2018-09-28T21:55:51.461Z,1.62
2018-09-28T21:58:20.462Z,1.40
2018-09-28T22:00:55.222Z,1.70
2018-09-28T22:03:24.096Z,1.77
2018-09-28T22:05:53.016Z,1.55
2018-09-28T22:08:21.755Z,1.70
2018-09-28T22:10:50.706Z,1.60
2018-09-28T22:13:19.440Z,1.70
2018-09-28T22:15:50.209Z,1.70
2018-09-28T22:18:18.936Z,1.60
2018-09-28T22:20:47.649Z,2.02
2018-09-28T22:23:16.327Z,1.60
2018-09-28T22:25:44.998Z,2.02
2018-09-28T22:28:16.052Z,1.80
2018-09-28T22:30:44.715Z,1.75
2018-09-28T22:33:13.491Z,1.75
2018-09-28T22:35:42.296Z,2.20
2018-09-28T22:38:11.017Z,2.00
2018-09-28T22:40:39.722Z,1.98
2018-09-28T22:43:08.661Z,1.65
2018-09-28T22:45:37.326Z,2.05
2018-09-28T22:48:06.156Z,1.75
2018-09-28T22:50:35.097Z,1.90
2018-09-28T22:53:03.697Z,1.80
2018-09-28T22:55:32.403Z,3.30
2018-09-28T22:58:01.090Z,2.05
2018-09-28T23:00:29.767Z,1.90
2018-09-28T23:02:58.500Z,1.80
2018-09-28T23:05:28.879Z,2.10
2018-09-28T23:07:57.607Z,2.60
2018-09-28T23:10:26.319Z,2.00
2018-09-28T23:12:55.062Z,1.80
2018-09-28T23:15:23.713Z,2.10
2018-09-28T23:17:52.371Z,2.30
2018-09-28T23:20:21.136Z,2.00
2018-09-28T23:22:49.755Z,2.62
2018-09-28T23:25:18.573Z,2.30
2018-09-28T23:27:47.882Z,2.37
2018-09-28T23:30:16.548Z,2.75
2018-09-28T23:32:45.176Z,2.30
2018-09-28T23:35:13.854Z,2.87
2018-09-28T23:37:42.575Z,2.80
2018-09-28T23:40:12.398Z,2.70
2018-09-28T23:42:41.290Z,2.67
2018-09-28T23:45:10.021Z,2.47
2018-09-28T23:47:38.823Z,2.25
2018-09-28T23:50:07.775Z,2.67
2018-09-28T23:52:36.349Z,2.43
2018-09-28T23:55:05.151Z,2.83
2018-09-28T23:57:33.832Z,2.83
